sensor_id;sensor_type;location;lat;lon;timestamp;P1;durP1;ratioP1;P2;durP2;ratioP2
50683;SDS011;36654;45.042;38.994;2024-02-26T00:01:43;10.60;;;4.68;;
50683;SDS011;36654;45.042;38.994;2024-02-26T00:04:09;7.72;;;4.78;;
50683;SDS011;36654;45.042;38.994;2024-02-26T00:06:37;9.68;;;4.28;;
50683;SDS011;36654;45.042;38.994;2024-02-26T00:11:31;7.47;;;3.80;;
50683;SDS011;36654;45.042;38.994;2024-02-26T00:13:57;9.25;;;4.47;;
50683;SDS011;36654;45.042;38.994;2024-02-26T00:16:23;7.57;;;4.43;;
50683;SDS011;36654;45.042;38.994;2024-02-26T00:18:49;9.65;;;5.03;;
50683;SDS011;36654;45.042;38.994;2024-02-26T00:21:15;8.88;;;4.68;;
50683;SDS011;36654;45.042;38.994;2024-02-26T00:23:41;12.63;;;4.97;;
50683;SDS011;36654;45.042;38.994;2024-02-26T00:26:06;10.75;;;4.63;;
50683;SDS011;36654;45.042;38.994;2024-02-26T00:28:33;9.52;;;5.03;;
50683;SDS011;36654;45.042;38.994;2024-02-26T00:30:59;8.60;;;4.45;;
50683;SDS011;36654;45.042;38.994;2024-02-26T00:33:24;8.77;;;4.93;;
50683;SDS011;36654;45.042;38.994;2024-02-26T00:35:50;8.63;;;4.47;;
50683;SDS011;36654;45.042;38.994;2024-02-26T00:38:16;9.80;;;5.10;;
50683;SDS011;36654;45.042;38.994;2024-02-26T00:40:41;9.18;;;4.82;;
50683;SDS011;36654;45.042;38.994;2024-02-26T00:43:07;13.27;;;5.25;;
50683;SDS011;36654;45.042;38.994;2024-02-26T00:45:33;10.50;;;5.10;;
50683;SDS011;36654;45.042;38.994;2024-02-26T00:47:59;9.13;;;4.25;;
50683;SDS011;36654;45.042;38.994;2024-02-26T00:50:30;8.38;;;4.50;;
50683;SDS011;36654;45.042;38.994;2024-02-26T00:52:56;14.55;;;5.68;;
50683;SDS011;36654;45.042;38.994;2024-02-26T00:55:22;7.97;;;4.43;;
50683;SDS011;36654;45.042;38.994;2024-02-26T00:57:48;10.07;;;4.65;;
50683;SDS011;36654;45.042;38.994;2024-02-26T01:00:13;12.23;;;5.55;;
50683;SDS011;36654;45.042;38.994;2024-02-26T01:02:39;10.55;;;5.05;;
50683;SDS011;36654;45.042;38.994;2024-02-26T01:05:07;10.75;;;5.47;;
50683;SDS011;36654;45.042;38.994;2024-02-26T01:07:34;9.07;;;5.03;;
50683;SDS011;36654;45.042;38.994;2024-02-26T01:10:01;9.43;;;6.05;;
50683;SDS011;36654;45.042;38.994;2024-02-26T01:12:28;12.25;;;5.47;;
50683;SDS011;36654;45.042;38.994;2024-02-26T01:14:53;12.23;;;5.53;;
50683;SDS011;36654;45.042;38.994;2024-02-26T01:17:19;9.88;;;5.40;;
50683;SDS011;36654;45.042;38.994;2024-02-26T01:19:45;12.60;;;5.18;;
50683;SDS011;36654;45.042;38.994;2024-02-26T01:22:10;11.10;;;5.22;;
50683;SDS011;36654;45.042;38.994;2024-02-26T01:24:36;14.55;;;5.75;;
50683;SDS011;36654;45.042;38.994;2024-02-26T01:27:02;10.00;;;5.20;;
50683;SDS011;36654;45.042;38.994;2024-02-26T01:29:27;10.70;;;5.13;;
50683;SDS011;36654;45.042;38.994;2024-02-26T01:31:53;9.45;;;5.10;;
50683;SDS011;36654;45.042;38.994;2024-02-26T01:34:20;12.00;;;5.18;;
50683;SDS011;36654;45.042;38.994;2024-02-26T01:36:45;11.43;;;5.22;;
50683;SDS011;36654;45.042;38.994;2024-02-26T01:39:11;9.75;;;5.60;;
50683;SDS011;36654;45.042;38.994;2024-02-26T01:41:40;11.60;;;5.28;;
50683;SDS011;36654;45.042;38.994;2024-02-26T01:44:06;10.55;;;5.38;;
50683;SDS011;36654;45.042;38.994;2024-02-26T01:46:35;14.35;;;6.03;;
50683;SDS011;36654;45.042;38.994;2024-02-26T01:49:02;14.88;;;6.00;;
50683;SDS011;36654;45.042;38.994;2024-02-26T01:51:28;11.27;;;5.80;;
50683;SDS011;36654;45.042;38.994;2024-02-26T01:53:55;18.95;;;5.78;;
50683;SDS011;36654;45.042;38.994;2024-02-26T01:56:21;12.60;;;6.00;;
50683;SDS011;36654;45.042;38.994;2024-02-26T01:58:47;12.70;;;6.43;;
50683;SDS011;36654;45.042;38.994;2024-02-26T02:01:14;11.43;;;5.63;;
50683;SDS011;36654;45.042;38.994;2024-02-26T02:03:43;11.80;;;5.28;;
50683;SDS011;36654;45.042;38.994;2024-02-26T02:06:10;14.65;;;6.53;;
50683;SDS011;36654;45.042;38.994;2024-02-26T02:08:37;12.13;;;6.40;;
50683;SDS011;36654;45.042;38.994;2024-02-26T02:11:04;16.05;;;5.80;;
50683;SDS011;36654;45.042;38.994;2024-02-26T02:13:29;10.73;;;5.25;;
50683;SDS011;36654;45.042;38.994;2024-02-26T02:15:55;22.20;;;5.78;;
50683;SDS011;36654;45.042;38.994;2024-02-26T02:18:21;16.45;;;6.78;;
50683;SDS011;36654;45.042;38.994;2024-02-26T02:20:46;12.30;;;6.85;;
50683;SDS011;36654;45.042;38.994;2024-02-26T02:23:12;13.10;;;6.22;;
50683;SDS011;36654;45.042;38.994;2024-02-26T02:25:39;13.85;;;5.68;;
50683;SDS011;36654;45.042;38.994;2024-02-26T02:28:04;12.40;;;6.03;;
50683;SDS011;36654;45.042;38.994;2024-02-26T02:30:31;13.73;;;6.88;;
50683;SDS011;36654;45.042;38.994;2024-02-26T02:32:58;13.88;;;6.18;;
50683;SDS011;36654;45.042;38.994;2024-02-26T02:35:24;11.50;;;6.22;;
50683;SDS011;36654;45.042;38.994;2024-02-26T02:37:53;14.32;;;6.13;;
50683;SDS011;36654;45.042;38.994;2024-02-26T02:40:21;11.23;;;5.25;;
50683;SDS011;36654;45.042;38.994;2024-02-26T02:42:46;12.35;;;6.50;;
50683;SDS011;36654;45.042;38.994;2024-02-26T02:45:12;13.73;;;5.88;;
50683;SDS011;36654;45.042;38.994;2024-02-26T02:47:37;16.30;;;7.45;;
50683;SDS011;36654;45.042;38.994;2024-02-26T02:50:03;14.15;;;6.00;;
50683;SDS011;36654;45.042;38.994;2024-02-26T02:52:30;11.75;;;6.28;;
50683;SDS011;36654;45.042;38.994;2024-02-26T02:54:55;12.35;;;6.63;;
50683;SDS011;36654;45.042;38.994;2024-02-26T02:57:21;15.48;;;6.05;;
50683;SDS011;36654;45.042;38.994;2024-02-26T02:59:50;15.65;;;7.13;;
50683;SDS011;36654;45.042;38.994;2024-02-26T03:02:16;16.48;;;7.80;;
50683;SDS011;36654;45.042;38.994;2024-02-26T03:04:41;12.25;;;5.60;;
50683;SDS011;36654;45.042;38.994;2024-02-26T03:07:07;11.98;;;6.53;;
50683;SDS011;36654;45.042;38.994;2024-02-26T03:09:33;14.80;;;6.18;;
50683;SDS011;36654;45.042;38.994;2024-02-26T03:11:58;11.18;;;6.25;;
50683;SDS011;36654;45.042;38.994;2024-02-26T03:14:24;13.98;;;5.85;;
50683;SDS011;36654;45.042;38.994;2024-02-26T03:16:53;11.43;;;6.35;;
50683;SDS011;36654;45.042;38.994;2024-02-26T03:19:20;15.95;;;6.53;;
50683;SDS011;36654;45.042;38.994;2024-02-26T03:21:45;16.80;;;6.13;;
50683;SDS011;36654;45.042;38.994;2024-02-26T03:24:11;12.95;;;6.18;;
50683;SDS011;36654;45.042;38.994;2024-02-26T03:26:37;16.98;;;6.60;;
50683;SDS011;36654;45.042;38.994;2024-02-26T03:29:03;13.10;;;6.40;;
50683;SDS011;36654;45.042;38.994;2024-02-26T03:31:29;13.88;;;6.93;;
50683;SDS011;36654;45.042;38.994;2024-02-26T03:33:55;14.15;;;6.72;;
50683;SDS011;36654;45.042;38.994;2024-02-26T03:36:20;11.60;;;6.38;;
50683;SDS011;36654;45.042;38.994;2024-02-26T03:38:49;12.85;;;6.05;;
50683;SDS011;36654;45.042;38.994;2024-02-26T03:41:14;14.35;;;7.57;;
50683;SDS011;36654;45.042;38.994;2024-02-26T03:43:40;15.43;;;6.55;;
50683;SDS011;36654;45.042;38.994;2024-02-26T03:46:09;18.08;;;7.25;;
50683;SDS011;36654;45.042;38.994;2024-02-26T03:48:36;17.50;;;6.75;;
50683;SDS011;36654;45.042;38.994;2024-02-26T03:51:02;17.30;;;6.68;;
50683;SDS011;36654;45.042;38.994;2024-02-26T03:53:28;18.13;;;6.38;;
50683;SDS011;36654;45.042;38.994;2024-02-26T03:55:54;16.63;;;7.32;;
50683;SDS011;36654;45.042;38.994;2024-02-26T03:58:20;17.15;;;7.07;;
50683;SDS011;36654;45.042;38.994;2024-02-26T04:00:46;13.98;;;6.60;;
50683;SDS011;36654;45.042;38.994;2024-02-26T04:03:15;16.88;;;6.75;;
50683;SDS011;36654;45.042;38.994;2024-02-26T04:05:41;12.50;;;6.47;;
50683;SDS011;36654;45.042;38.994;2024-02-26T04:08:06;14.20;;;5.65;;
50683;SDS011;36654;45.042;38.994;2024-02-26T04:10:35;13.68;;;6.25;;
50683;SDS011;36654;45.042;38.994;2024-02-26T04:13:03;11.68;;;6.18;;
50683;SDS011;36654;45.042;38.994;2024-02-26T04:15:29;16.17;;;7.03;;
50683;SDS011;36654;45.042;38.994;2024-02-26T04:17:56;12.75;;;6.93;;
50683;SDS011;36654;45.042;38.994;2024-02-26T04:20:22;10.65;;;6.10;;
50683;SDS011;36654;45.042;38.994;2024-02-26T04:22:48;16.17;;;7.07;;
50683;SDS011;36654;45.042;38.994;2024-02-26T04:25:13;15.75;;;6.47;;
50683;SDS011;36654;45.042;38.994;2024-02-26T04:27:39;12.00;;;6.18;;
50683;SDS011;36654;45.042;38.994;2024-02-26T04:30:06;13.57;;;7.00;;
50683;SDS011;36654;45.042;38.994;2024-02-26T04:32:32;13.73;;;6.68;;
50683;SDS011;36654;45.042;38.994;2024-02-26T04:34:59;16.75;;;6.78;;
50683;SDS011;36654;45.042;38.994;2024-02-26T04:37:25;15.38;;;7.80;;
50683;SDS011;36654;45.042;38.994;2024-02-26T04:39:57;15.95;;;7.40;;
50683;SDS011;36654;45.042;38.994;2024-02-26T04:42:24;14.15;;;6.93;;
50683;SDS011;36654;45.042;38.994;2024-02-26T04:44:49;14.73;;;7.20;;
50683;SDS011;36654;45.042;38.994;2024-02-26T04:47:15;13.25;;;6.50;;
50683;SDS011;36654;45.042;38.994;2024-02-26T04:49:41;14.77;;;7.68;;
50683;SDS011;36654;45.042;38.994;2024-02-26T04:52:06;20.83;;;7.00;;
50683;SDS011;36654;45.042;38.994;2024-02-26T04:54:33;19.35;;;7.38;;
50683;SDS011;36654;45.042;38.994;2024-02-26T04:56:58;16.33;;;7.18;;
50683;SDS011;36654;45.042;38.994;2024-02-26T04:59:24;18.10;;;7.07;;
50683;SDS011;36654;45.042;38.994;2024-02-26T05:01:50;16.00;;;7.47;;
50683;SDS011;36654;45.042;38.994;2024-02-26T05:04:17;11.73;;;6.82;;
50683;SDS011;36654;45.042;38.994;2024-02-26T05:06:47;11.77;;;6.20;;
50683;SDS011;36654;45.042;38.994;2024-02-26T05:09:13;14.60;;;6.82;;
50683;SDS011;36654;45.042;38.994;2024-02-26T05:11:38;14.75;;;7.15;;
50683;SDS011;36654;45.042;38.994;2024-02-26T05:14:04;16.33;;;6.47;;
50683;SDS011;36654;45.042;38.994;2024-02-26T05:16:33;13.05;;;5.90;;
50683;SDS011;36654;45.042;38.994;2024-02-26T05:18:58;11.73;;;7.47;;
50683;SDS011;36654;45.042;38.994;2024-02-26T05:21:24;14.15;;;6.70;;
50683;SDS011;36654;45.042;38.994;2024-02-26T05:23:50;13.80;;;7.30;;
50683;SDS011;36654;45.042;38.994;2024-02-26T05:26:19;13.05;;;6.72;;
50683;SDS011;36654;45.042;38.994;2024-02-26T05:28:46;14.93;;;7.03;;
50683;SDS011;36654;45.042;38.994;2024-02-26T05:31:12;13.80;;;7.72;;
50683;SDS011;36654;45.042;38.994;2024-02-26T05:33:39;11.85;;;6.55;;
50683;SDS011;36654;45.042;38.994;2024-02-26T05:36:05;14.57;;;7.22;;
50683;SDS011;36654;45.042;38.994;2024-02-26T05:38:31;14.23;;;7.13;;
50683;SDS011;36654;45.042;38.994;2024-02-26T05:40:57;19.25;;;7.43;;
50683;SDS011;36654;45.042;38.994;2024-02-26T05:43:24;17.15;;;7.22;;
50683;SDS011;36654;45.042;38.994;2024-02-26T05:45:50;13.98;;;7.10;;
50683;SDS011;36654;45.042;38.994;2024-02-26T05:48:16;14.45;;;7.55;;
50683;SDS011;36654;45.042;38.994;2024-02-26T05:50:42;15.55;;;7.55;;
50683;SDS011;36654;45.042;38.994;2024-02-26T05:53:07;13.95;;;7.40;;
50683;SDS011;36654;45.042;38.994;2024-02-26T05:55:33;19.13;;;7.82;;
50683;SDS011;36654;45.042;38.994;2024-02-26T05:57:58;17.95;;;8.68;;
50683;SDS011;36654;45.042;38.994;2024-02-26T06:00:24;13.10;;;7.15;;
50683;SDS011;36654;45.042;38.994;2024-02-26T06:02:50;17.70;;;8.65;;
50683;SDS011;36654;45.042;38.994;2024-02-26T06:05:15;17.35;;;8.52;;
50683;SDS011;36654;45.042;38.994;2024-02-26T06:07:41;13.88;;;7.10;;
50683;SDS011;36654;45.042;38.994;2024-02-26T06:10:07;15.77;;;7.20;;
50683;SDS011;36654;45.042;38.994;2024-02-26T06:12:35;13.80;;;7.18;;
50683;SDS011;36654;45.042;38.994;2024-02-26T06:15:01;14.35;;;7.22;;
50683;SDS011;36654;45.042;38.994;2024-02-26T06:17:27;17.75;;;7.60;;
50683;SDS011;36654;45.042;38.994;2024-02-26T06:19:53;14.43;;;7.20;;
50683;SDS011;36654;45.042;38.994;2024-02-26T06:22:19;15.30;;;7.65;;
50683;SDS011;36654;45.042;38.994;2024-02-26T06:24:44;12.82;;;7.80;;
50683;SDS011;36654;45.042;38.994;2024-02-26T06:27:10;13.82;;;7.53;;
50683;SDS011;36654;45.042;38.994;2024-02-26T06:29:36;18.60;;;8.07;;
50683;SDS011;36654;45.042;38.994;2024-02-26T06:32:01;17.02;;;7.68;;
50683;SDS011;36654;45.042;38.994;2024-02-26T06:34:27;17.35;;;7.07;;
50683;SDS011;36654;45.042;38.994;2024-02-26T06:36:53;16.10;;;7.53;;
50683;SDS011;36654;45.042;38.994;2024-02-26T06:39:18;26.20;;;8.15;;
50683;SDS011;36654;45.042;38.994;2024-02-26T06:41:44;15.35;;;7.22;;
50683;SDS011;36654;45.042;38.994;2024-02-26T06:44:12;17.15;;;8.10;;
50683;SDS011;36654;45.042;38.994;2024-02-26T06:46:38;17.25;;;8.52;;
50683;SDS011;36654;45.042;38.994;2024-02-26T06:49:05;14.80;;;7.28;;
50683;SDS011;36654;45.042;38.994;2024-02-26T06:51:31;22.83;;;8.98;;
50683;SDS011;36654;45.042;38.994;2024-02-26T06:53:56;21.45;;;8.52;;
50683;SDS011;36654;45.042;38.994;2024-02-26T06:56:23;14.27;;;7.88;;
50683;SDS011;36654;45.042;38.994;2024-02-26T06:58:48;16.73;;;7.35;;
50683;SDS011;36654;45.042;38.994;2024-02-26T07:01:14;18.63;;;8.05;;
50683;SDS011;36654;45.042;38.994;2024-02-26T07:03:40;12.20;;;7.18;;
50683;SDS011;36654;45.042;38.994;2024-02-26T07:06:06;16.75;;;8.00;;
50683;SDS011;36654;45.042;38.994;2024-02-26T07:08:32;17.25;;;8.05;;
50683;SDS011;36654;45.042;38.994;2024-02-26T07:10:57;19.05;;;7.93;;
50683;SDS011;36654;45.042;38.994;2024-02-26T07:13:23;16.90;;;7.97;;
50683;SDS011;36654;45.042;38.994;2024-02-26T07:15:49;20.15;;;7.55;;
50683;SDS011;36654;45.042;38.994;2024-02-26T07:18:14;18.55;;;7.88;;
50683;SDS011;36654;45.042;38.994;2024-02-26T07:20:40;16.55;;;7.45;;
50683;SDS011;36654;45.042;38.994;2024-02-26T07:23:06;13.50;;;7.95;;
50683;SDS011;36654;45.042;38.994;2024-02-26T07:25:32;15.45;;;8.68;;
50683;SDS011;36654;45.042;38.994;2024-02-26T07:27:57;15.02;;;8.02;;
50683;SDS011;36654;45.042;38.994;2024-02-26T07:30:23;19.10;;;8.02;;
50683;SDS011;36654;45.042;38.994;2024-02-26T07:32:49;19.80;;;8.07;;
50683;SDS011;36654;45.042;38.994;2024-02-26T07:35:16;15.88;;;8.75;;
50683;SDS011;36654;45.042;38.994;2024-02-26T07:37:42;16.42;;;8.32;;
50683;SDS011;36654;45.042;38.994;2024-02-26T07:40:09;20.33;;;7.75;;
50683;SDS011;36654;45.042;38.994;2024-02-26T07:42:35;14.63;;;7.88;;
50683;SDS011;36654;45.042;38.994;2024-02-26T07:45:02;15.70;;;7.20;;
50683;SDS011;36654;45.042;38.994;2024-02-26T07:47:28;17.77;;;7.95;;
50683;SDS011;36654;45.042;38.994;2024-02-26T07:49:54;16.85;;;9.20;;
50683;SDS011;36654;45.042;38.994;2024-02-26T07:52:20;12.80;;;7.25;;
50683;SDS011;36654;45.042;38.994;2024-02-26T07:54:46;17.73;;;8.55;;
50683;SDS011;36654;45.042;38.994;2024-02-26T07:57:11;12.52;;;7.03;;
50683;SDS011;36654;45.042;38.994;2024-02-26T07:59:40;14.75;;;8.02;;
50683;SDS011;36654;45.042;38.994;2024-02-26T08:02:06;13.43;;;7.50;;
50683;SDS011;36654;45.042;38.994;2024-02-26T08:04:31;11.13;;;6.85;;
50683;SDS011;36654;45.042;38.994;2024-02-26T08:06:57;16.30;;;7.57;;
50683;SDS011;36654;45.042;38.994;2024-02-26T08:09:23;15.68;;;7.97;;
50683;SDS011;36654;45.042;38.994;2024-02-26T08:11:49;13.23;;;6.70;;
50683;SDS011;36654;45.042;38.994;2024-02-26T08:14:14;12.05;;;6.80;;
50683;SDS011;36654;45.042;38.994;2024-02-26T08:16:40;15.32;;;7.68;;
50683;SDS011;36654;45.042;38.994;2024-02-26T08:19:05;17.10;;;7.25;;
50683;SDS011;36654;45.042;38.994;2024-02-26T08:21:31;17.20;;;8.68;;
50683;SDS011;36654;45.042;38.994;2024-02-26T08:23:57;15.07;;;7.30;;
50683;SDS011;36654;45.042;38.994;2024-02-26T08:26:22;15.10;;;7.38;;
50683;SDS011;36654;45.042;38.994;2024-02-26T08:28:49;14.50;;;7.60;;
50683;SDS011;36654;45.042;38.994;2024-02-26T08:31:16;14.48;;;7.32;;
50683;SDS011;36654;45.042;38.994;2024-02-26T08:33:42;13.98;;;7.03;;
50683;SDS011;36654;45.042;38.994;2024-02-26T08:36:07;12.27;;;7.03;;
50683;SDS011;36654;45.042;38.994;2024-02-26T08:38:33;15.82;;;7.63;;
50683;SDS011;36654;45.042;38.994;2024-02-26T08:41:01;13.68;;;7.93;;
50683;SDS011;36654;45.042;38.994;2024-02-26T08:43:28;16.20;;;7.43;;
50683;SDS011;36654;45.042;38.994;2024-02-26T08:45:53;16.15;;;8.10;;
50683;SDS011;36654;45.042;38.994;2024-02-26T08:48:19;11.63;;;6.55;;
50683;SDS011;36654;45.042;38.994;2024-02-26T08:50:45;16.42;;;8.57;;
50683;SDS011;36654;45.042;38.994;2024-02-26T08:53:10;11.70;;;7.20;;
50683;SDS011;36654;45.042;38.994;2024-02-26T08:55:36;19.02;;;7.88;;
50683;SDS011;36654;45.042;38.994;2024-02-26T08:58:02;11.45;;;7.20;;
50683;SDS011;36654;45.042;38.994;2024-02-26T09:00:27;16.75;;;7.63;;
50683;SDS011;36654;45.042;38.994;2024-02-26T09:02:53;15.68;;;7.45;;
50683;SDS011;36654;45.042;38.994;2024-02-26T09:05:19;19.45;;;8.75;;
50683;SDS011;36654;45.042;38.994;2024-02-26T09:07:44;20.33;;;7.70;;
50683;SDS011;36654;45.042;38.994;2024-02-26T09:10:11;17.15;;;8.27;;
50683;SDS011;36654;45.042;38.994;2024-02-26T09:12:37;17.05;;;8.02;;
50683;SDS011;36654;45.042;38.994;2024-02-26T09:15:05;20.77;;;9.32;;
50683;SDS011;36654;45.042;38.994;2024-02-26T09:17:32;27.05;;;8.50;;
50683;SDS011;36654;45.042;38.994;2024-02-26T09:19:58;16.75;;;8.30;;
50683;SDS011;36654;45.042;38.994;2024-02-26T09:22:23;17.17;;;7.85;;
50683;SDS011;36654;45.042;38.994;2024-02-26T09:24:49;21.73;;;8.63;;
50683;SDS011;36654;45.042;38.994;2024-02-26T09:27:17;16.27;;;8.25;;
50683;SDS011;36654;45.042;38.994;2024-02-26T09:29:43;16.52;;;7.88;;
50683;SDS011;36654;45.042;38.994;2024-02-26T09:32:08;22.17;;;10.25;;
50683;SDS011;36654;45.042;38.994;2024-02-26T09:34:34;21.35;;;8.48;;
50683;SDS011;36654;45.042;38.994;2024-02-26T09:37:00;18.63;;;8.07;;
50683;SDS011;36654;45.042;38.994;2024-02-26T09:39:26;18.52;;;7.45;;
50683;SDS011;36654;45.042;38.994;2024-02-26T09:41:53;22.17;;;9.23;;
50683;SDS011;36654;45.042;38.994;2024-02-26T09:44:19;14.50;;;7.53;;
50683;SDS011;36654;45.042;38.994;2024-02-26T09:46:48;22.13;;;9.02;;
50683;SDS011;36654;45.042;38.994;2024-02-26T09:49:18;19.65;;;8.73;;
50683;SDS011;36654;45.042;38.994;2024-02-26T09:51:45;19.42;;;8.48;;
50683;SDS011;36654;45.042;38.994;2024-02-26T09:54:13;18.48;;;8.07;;
50683;SDS011;36654;45.042;38.994;2024-02-26T09:56:41;16.95;;;8.73;;
50683;SDS011;36654;45.042;38.994;2024-02-26T09:59:10;19.95;;;7.97;;
50683;SDS011;36654;45.042;38.994;2024-02-26T10:01:40;13.68;;;7.97;;
50683;SDS011;36654;45.042;38.994;2024-02-26T10:04:07;19.33;;;8.25;;
50683;SDS011;36654;45.042;38.994;2024-02-26T10:06:34;13.93;;;8.20;;
50683;SDS011;36654;45.042;38.994;2024-02-26T10:09:01;17.00;;;7.28;;
50683;SDS011;36654;45.042;38.994;2024-02-26T10:11:31;14.38;;;8.15;;
50683;SDS011;36654;45.042;38.994;2024-02-26T10:13:57;17.95;;;8.73;;
50683;SDS011;36654;45.042;38.994;2024-02-26T10:16:24;15.45;;;8.25;;
50683;SDS011;36654;45.042;38.994;2024-02-26T10:18:51;13.10;;;7.88;;
50683;SDS011;36654;45.042;38.994;2024-02-26T10:21:19;13.23;;;7.00;;
50683;SDS011;36654;45.042;38.994;2024-02-26T10:23:45;15.02;;;8.02;;
50683;SDS011;36654;45.042;38.994;2024-02-26T10:26:12;20.77;;;8.27;;
50683;SDS011;36654;45.042;38.994;2024-02-26T10:28:41;15.18;;;8.02;;
50683;SDS011;36654;45.042;38.994;2024-02-26T10:31:08;15.88;;;8.07;;
50683;SDS011;36654;45.042;38.994;2024-02-26T10:33:34;16.05;;;7.38;;
50683;SDS011;36654;45.042;38.994;2024-02-26T10:36:03;18.60;;;8.05;;
50683;SDS011;36654;45.042;38.994;2024-02-26T10:38:32;18.33;;;7.72;;
50683;SDS011;36654;45.042;38.994;2024-02-26T10:40:59;18.17;;;8.25;;
50683;SDS011;36654;45.042;38.994;2024-02-26T10:43:27;13.57;;;7.78;;
50683;SDS011;36654;45.042;38.994;2024-02-26T10:45:56;14.23;;;7.95;;
50683;SDS011;36654;45.042;38.994;2024-02-26T10:50:47;22.02;;;7.88;;
50683;SDS011;36654;45.042;38.994;2024-02-26T10:53:17;20.83;;;7.53;;
50683;SDS011;36654;45.042;38.994;2024-02-26T10:55:52;14.88;;;7.88;;
50683;SDS011;36654;45.042;38.994;2024-02-26T10:58:22;25.15;;;7.70;;
50683;SDS011;36654;45.042;38.994;2024-02-26T11:00:50;13.35;;;6.43;;
50683;SDS011;36654;45.042;38.994;2024-02-26T11:03:16;16.00;;;8.05;;
50683;SDS011;36654;45.042;38.994;2024-02-26T11:05:45;16.55;;;7.32;;
50683;SDS011;36654;45.042;38.994;2024-02-26T11:08:15;15.30;;;7.78;;
50683;SDS011;36654;45.042;38.994;2024-02-26T11:10:48;18.40;;;7.88;;
50683;SDS011;36654;45.042;38.994;2024-02-26T11:13:18;15.20;;;7.50;;
50683;SDS011;36654;45.042;38.994;2024-02-26T11:15:45;16.20;;;7.50;;
50683;SDS011;36654;45.042;38.994;2024-02-26T11:18:13;22.58;;;7.97;;
50683;SDS011;36654;45.042;38.994;2024-02-26T11:20:40;17.15;;;7.88;;
50683;SDS011;36654;45.042;38.994;2024-02-26T11:23:06;15.85;;;6.90;;
50683;SDS011;36654;45.042;38.994;2024-02-26T11:25:34;17.38;;;7.25;;
50683;SDS011;36654;45.042;38.994;2024-02-26T11:28:03;17.17;;;6.82;;
50683;SDS011;36654;45.042;38.994;2024-02-26T11:30:32;14.00;;;6.60;;
50683;SDS011;36654;45.042;38.994;2024-02-26T11:33:00;11.70;;;6.10;;
50683;SDS011;36654;45.042;38.994;2024-02-26T11:35:26;15.27;;;6.40;;
50683;SDS011;36654;45.042;38.994;2024-02-26T11:37:56;15.65;;;6.43;;
50683;SDS011;36654;45.042;38.994;2024-02-26T11:40:26;16.95;;;7.25;;
50683;SDS011;36654;45.042;38.994;2024-02-26T11:42:52;14.43;;;6.88;;
50683;SDS011;36654;45.042;38.994;2024-02-26T11:48:03;14.70;;;6.13;;
50683;SDS011;36654;45.042;38.994;2024-02-26T11:50:36;13.45;;;6.20;;
50683;SDS011;36654;45.042;38.994;2024-02-26T11:53:19;12.93;;;6.03;;
50683;SDS011;36654;45.042;38.994;2024-02-26T11:56:40;11.48;;;6.57;;
50683;SDS011;36654;45.042;38.994;2024-02-26T11:58:43;11.60;;;6.75;;
50683;SDS011;36654;45.042;38.994;2024-02-26T12:04:04;11.32;;;6.20;;
50683;SDS011;36654;45.042;38.994;2024-02-26T12:06:31;12.38;;;6.95;;
50683;SDS011;36654;45.042;38.994;2024-02-26T12:09:05;11.65;;;6.38;;
50683;SDS011;36654;45.042;38.994;2024-02-26T12:11:31;11.98;;;5.90;;
50683;SDS011;36654;45.042;38.994;2024-02-26T12:13:56;15.25;;;5.80;;
50683;SDS011;36654;45.042;38.994;2024-02-26T12:16:35;9.93;;;5.47;;
50683;SDS011;36654;45.042;38.994;2024-02-26T12:19:05;13.35;;;5.95;;
50683;SDS011;36654;45.042;38.994;2024-02-26T12:21:35;14.07;;;6.32;;
50683;SDS011;36654;45.042;38.994;2024-02-26T12:24:11;15.48;;;6.97;;
50683;SDS011;36654;45.042;38.994;2024-02-26T12:26:39;11.95;;;7.85;;
50683;SDS011;36654;45.042;38.994;2024-02-26T12:29:05;13.15;;;7.97;;
50683;SDS011;36654;45.042;38.994;2024-02-26T12:31:32;15.05;;;9.32;;
50683;SDS011;36654;45.042;38.994;2024-02-26T12:33:59;15.73;;;10.63;;
50683;SDS011;36654;45.042;38.994;2024-02-26T12:36:25;22.95;;;11.90;;
50683;SDS011;36654;45.042;38.994;2024-02-26T12:38:52;25.50;;;15.95;;
50683;SDS011;36654;45.042;38.994;2024-02-26T12:41:18;20.00;;;14.77;;
50683;SDS011;36654;45.042;38.994;2024-02-26T12:43:44;25.95;;;15.82;;
50683;SDS011;36654;45.042;38.994;2024-02-26T12:46:10;22.10;;;14.20;;
50683;SDS011;36654;45.042;38.994;2024-02-26T12:48:37;24.92;;;14.88;;
50683;SDS011;36654;45.042;38.994;2024-02-26T12:51:04;23.50;;;14.52;;
50683;SDS011;36654;45.042;38.994;2024-02-26T12:53:31;22.65;;;12.57;;
50683;SDS011;36654;45.042;38.994;2024-02-26T12:55:57;23.58;;;13.40;;
50683;SDS011;36654;45.042;38.994;2024-02-26T12:58:23;19.30;;;11.63;;
50683;SDS011;36654;45.042;38.994;2024-02-26T13:00:53;18.88;;;12.27;;
50683;SDS011;36654;45.042;38.994;2024-02-26T13:03:20;21.33;;;13.98;;
50683;SDS011;36654;45.042;38.994;2024-02-26T13:05:47;22.60;;;15.15;;
50683;SDS011;36654;45.042;38.994;2024-02-26T13:08:17;23.63;;;11.75;;
50683;SDS011;36654;45.042;38.994;2024-02-26T13:10:46;28.75;;;14.95;;
50683;SDS011;36654;45.042;38.994;2024-02-26T13:13:16;19.10;;;13.02;;
50683;SDS011;36654;45.042;38.994;2024-02-26T13:15:43;15.68;;;10.70;;
50683;SDS011;36654;45.042;38.994;2024-02-26T13:18:13;21.55;;;11.80;;
50683;SDS011;36654;45.042;38.994;2024-02-26T13:20:42;22.58;;;14.00;;
50683;SDS011;36654;45.042;38.994;2024-02-26T13:23:10;22.75;;;14.25;;
50683;SDS011;36654;45.042;38.994;2024-02-26T13:25:37;19.85;;;13.73;;
50683;SDS011;36654;45.042;38.994;2024-02-26T13:28:14;22.95;;;14.15;;
50683;SDS011;36654;45.042;38.994;2024-02-26T13:31:17;22.35;;;13.73;;
50683;SDS011;36654;45.042;38.994;2024-02-26T13:33:37;26.05;;;13.88;;
50683;SDS011;36654;45.042;38.994;2024-02-26T13:36:03;20.58;;;13.70;;
50683;SDS011;36654;45.042;38.994;2024-02-26T13:38:29;21.30;;;13.35;;
50683;SDS011;36654;45.042;38.994;2024-02-26T13:40:55;15.20;;;10.90;;
50683;SDS011;36654;45.042;38.994;2024-02-26T13:43:21;21.02;;;10.23;;
50683;SDS011;36654;45.042;38.994;2024-02-26T13:45:47;21.05;;;11.55;;
50683;SDS011;36654;45.042;38.994;2024-02-26T13:48:13;19.63;;;11.90;;
50683;SDS011;36654;45.042;38.994;2024-02-26T13:50:39;19.13;;;11.77;;
50683;SDS011;36654;45.042;38.994;2024-02-26T13:53:06;18.98;;;10.63;;
50683;SDS011;36654;45.042;38.994;2024-02-26T13:55:32;21.15;;;12.13;;
50683;SDS011;36654;45.042;38.994;2024-02-26T13:57:58;21.25;;;13.98;;
50683;SDS011;36654;45.042;38.994;2024-02-26T14:00:26;21.52;;;13.93;;
50683;SDS011;36654;45.042;38.994;2024-02-26T14:02:53;20.52;;;11.80;;
50683;SDS011;36654;45.042;38.994;2024-02-26T14:05:19;19.67;;;12.27;;
50683;SDS011;36654;45.042;38.994;2024-02-26T14:07:45;21.20;;;10.82;;
50683;SDS011;36654;45.042;38.994;2024-02-26T14:10:13;20.70;;;9.27;;
50683;SDS011;36654;45.042;38.994;2024-02-26T14:12:41;17.95;;;7.75;;
50683;SDS011;36654;45.042;38.994;2024-02-26T14:15:07;17.70;;;8.70;;
50683;SDS011;36654;45.042;38.994;2024-02-26T14:17:34;13.18;;;7.68;;
50683;SDS011;36654;45.042;38.994;2024-02-26T14:20:00;17.08;;;8.63;;
50683;SDS011;36654;45.042;38.994;2024-02-26T14:22:25;18.17;;;8.90;;
50683;SDS011;36654;45.042;38.994;2024-02-26T14:24:56;15.88;;;8.65;;
50683;SDS011;36654;45.042;38.994;2024-02-26T14:27:22;17.45;;;8.85;;
50683;SDS011;36654;45.042;38.994;2024-02-26T14:29:48;15.00;;;8.88;;